Time;durP1;ratioP1;P1;durP2;ratioP2;P2;SDS_P1;SDS_P2;PMS_P1;PMS_P2;Temp;Humidity;BMP_temperature;BMP_pressure;BME280_temperature;BME280_humidity;BME280_pressure;Samples;Min_cycle;Max_cycle;Signal;HPM_P1;HPM_P2
2022/02/24 00:00:23;;;;;;;;;;;21.50;27.80;;;;;;470138;253;1429;-74
2022/02/24 00:02:24;;;;;;;;;;;21.60;27.70;;;;;;470214;253;1446;-74
2022/02/24 00:04:25;;;;;;;;;;;21.70;27.60;;;;;;470280;254;1074;-74
2022/02/24 00:06:27;;;;;;;;;;;21.90;27.50;;;;;;470135;254;2132;-74
2022/02/24 00:08:28;;;;;;;;;;;22.00;27.40;;;;;;470156;254;1152;-74
2022/02/24 00:10:29;;;;;;;;;;;22.00;27.30;;;;;;470225;253;1015;-74
2022/02/24 00:12:31;;;;;;;;;;;22.10;27.20;;;;;;470146;254;1189;-74
2022/02/24 00:14:32;;;;;;;;;;;22.20;27.10;;;;;;470142;253;1115;-74
2022/02/24 00:16:33;;;;;;;;;;;22.30;27.00;;;;;;470124;254;959;-74
2022/02/24 00:18:35;;;;;;;;;;;22.20;27.10;;;;;;470259;254;1124;-74
2022/02/24 00:20:36;;;;;;;;;;;22.20;27.10;;;;;;470174;254;991;-74
2022/02/24 00:22:37;;;;;;;;;;;22.10;27.20;;;;;;470232;254;1318;-74
2022/02/24 00:24:39;;;;;;;;;;;22.00;27.30;;;;;;470179;254;1215;-74
2022/02/24 00:26:40;;;;;;;;;;;22.00;27.30;;;;;;470169;253;2190;-74
2022/02/24 00:28:41;;;;;;;;;;;21.80;27.40;;;;;;470298;254;1223;-74
2022/02/24 00:30:43;;;;;;;;;;;21.80;27.30;;;;;;470184;253;1141;-74
2022/02/24 00:32:44;;;;;;;;;;;21.80;27.40;;;;;;470150;253;1198;-74
2022/02/24 00:34:45;;;;;;;;;;;21.70;27.40;;;;;;470173;253;1223;-74
2022/02/24 00:36:47;;;;;;;;;;;21.70;27.50;;;;;;470148;254;1260;-74
2022/02/24 00:38:48;;;;;;;;;;;21.60;27.50;;;;;;470252;253;1293;-74
2022/02/24 00:40:49;;;;;;;;;;;21.70;27.40;;;;;;470194;254;1111;-74
2022/02/24 00:42:51;;;;;;;;;;;21.60;27.40;;;;;;470173;254;1126;-74
2022/02/24 00:44:52;;;;;;;;;;;21.50;27.50;;;;;;470174;253;1002;-74
2022/02/24 00:46:53;;;;;;;;;;;21.60;27.50;;;;;;470162;253;2191;-74
2022/02/24 00:48:55;;;;;;;;;;;21.70;27.40;;;;;;470192;253;1323;-74
2022/02/24 00:50:56;;;;;;;;;;;21.60;27.40;;;;;;470169;248;1220;-74
2022/02/24 00:52:57;;;;;;;;;;;21.60;27.40;;;;;;470242;253;1168;-74
2022/02/24 00:54:59;;;;;;;;;;;21.60;27.40;;;;;;470333;253;1270;-74
2022/02/24 00:57:00;;;;;;;;;;;21.60;27.40;;;;;;470147;253;1064;-74
2022/02/24 00:59:03;;;;;;;;;;;21.70;27.40;;;;;;470202;254;960;-74
2022/02/24 01:01:03;;;;;;;;;;;21.60;27.30;;;;;;470077;253;1522;-74
2022/02/24 01:03:04;;;;;;;;;;;21.70;27.30;;;;;;470158;254;980;-74
2022/02/24 01:05:05;;;;;;;;;;;21.60;27.30;;;;;;470162;254;978;-74
2022/02/24 01:07:07;;;;;;;;;;;21.60;27.40;;;;;;470102;253;2202;-74
2022/02/24 01:09:08;;;;;;;;;;;21.60;27.30;;;;;;470176;253;1315;-74
2022/02/24 01:11:09;;;;;;;;;;;21.60;27.40;;;;;;470172;254;983;-74
2022/02/24 01:13:11;;;;;;;;;;;21.60;27.40;;;;;;470171;253;962;-74
2022/02/24 01:15:12;;;;;;;;;;;21.60;27.40;;;;;;470186;254;999;-74
2022/02/24 01:17:13;;;;;;;;;;;21.50;27.40;;;;;;470155;253;966;-74
2022/02/24 01:19:15;;;;;;;;;;;21.50;27.40;;;;;;470229;254;931;-74
2022/02/24 01:21:16;;;;;;;;;;;21.50;27.40;;;;;;470199;253;1002;-74
2022/02/24 01:23:17;;;;;;;;;;;21.60;27.30;;;;;;470189;253;991;-74
2022/02/24 01:25:19;;;;;;;;;;;21.50;27.30;;;;;;470285;254;1202;-74
2022/02/24 01:27:20;;;;;;;;;;;21.60;27.30;;;;;;470127;254;2186;-74
2022/02/24 01:29:21;;;;;;;;;;;21.60;27.30;;;;;;470230;253;1037;-74
2022/02/24 01:31:23;;;;;;;;;;;21.50;27.30;;;;;;470170;254;1110;-74
2022/02/24 01:33:24;;;;;;;;;;;21.60;27.30;;;;;;470071;254;1384;-74
2022/02/24 01:35:25;;;;;;;;;;;21.50;27.30;;;;;;470117;253;988;-74
2022/02/24 01:37:27;;;;;;;;;;;21.50;27.30;;;;;;470136;253;1091;-74
2022/02/24 01:39:28;;;;;;;;;;;21.40;27.30;;;;;;470190;254;1213;-74
2022/02/24 01:41:29;;;;;;;;;;;21.40;27.40;;;;;;470144;254;1208;-74
2022/02/24 01:43:31;;;;;;;;;;;21.40;27.40;;;;;;470227;253;1086;-74
2022/02/24 01:45:32;;;;;;;;;;;21.40;27.40;;;;;;470165;254;1281;-74
2022/02/24 01:47:34;;;;;;;;;;;21.40;27.40;;;;;;470149;254;2127;-74
2022/02/24 01:49:35;;;;;;;;;;;21.40;27.30;;;;;;470171;254;981;-74
2022/02/24 01:51:36;;;;;;;;;;;21.50;27.20;;;;;;470113;253;1220;-74
2022/02/24 01:53:37;;;;;;;;;;;21.50;27.20;;;;;;470122;254;1103;-74
2022/02/24 01:55:39;;;;;;;;;;;21.50;27.20;;;;;;470073;254;1183;-74
2022/02/24 01:57:40;;;;;;;;;;;21.40;27.30;;;;;;470142;253;1004;-74
2022/02/24 01:59:41;;;;;;;;;;;21.40;27.30;;;;;;470164;253;1013;-74
2022/02/24 02:01:43;;;;;;;;;;;21.50;27.20;;;;;;470117;254;1129;-74
2022/02/24 02:03:45;;;;;;;;;;;21.40;27.30;;;;;;470067;253;1157;-74
2022/02/24 02:05:47;;;;;;;;;;;21.40;27.30;;;;;;470108;254;1119;-74
2022/02/24 02:07:47;;;;;;;;;;;21.40;27.30;;;;;;470036;253;2198;-74
2022/02/24 02:09:48;;;;;;;;;;;21.40;27.30;;;;;;470110;253;1159;-74
2022/02/24 02:11:50;;;;;;;;;;;21.40;27.30;;;;;;470075;254;1216;-74
2022/02/24 02:13:51;;;;;;;;;;;21.50;27.20;;;;;;470224;253;991;-74
2022/02/24 02:15:53;;;;;;;;;;;21.50;27.20;;;;;;470188;253;1175;-74
2022/02/24 02:17:54;;;;;;;;;;;21.40;27.20;;;;;;470098;253;1190;-74
2022/02/24 02:19:55;;;;;;;;;;;21.40;27.30;;;;;;470222;253;1212;-74
2022/02/24 02:21:56;;;;;;;;;;;21.30;27.30;;;;;;470086;254;1242;-74
2022/02/24 02:23:58;;;;;;;;;;;21.40;27.30;;;;;;470166;253;1069;-74
2022/02/24 02:25:59;;;;;;;;;;;21.30;27.30;;;;;;470184;253;1146;-74
2022/02/24 02:28:00;;;;;;;;;;;21.40;27.30;;;;;;470213;253;2221;-74
2022/02/24 02:30:02;;;;;;;;;;;21.40;27.30;;;;;;470205;254;963;-74
2022/02/24 02:32:04;;;;;;;;;;;21.30;27.20;;;;;;470161;253;1176;-74
2022/02/24 02:34:05;;;;;;;;;;;21.40;27.20;;;;;;470182;253;1542;-74
2022/02/24 02:36:06;;;;;;;;;;;21.40;27.20;;;;;;470184;248;1290;-74
2022/02/24 02:38:07;;;;;;;;;;;21.40;27.10;;;;;;470230;254;1250;-74
2022/02/24 02:40:09;;;;;;;;;;;21.50;27.10;;;;;;470193;254;1168;-74
2022/02/24 02:42:10;;;;;;;;;;;21.40;27.10;;;;;;470167;253;1261;-74
2022/02/24 02:44:11;;;;;;;;;;;21.40;27.20;;;;;;470144;254;1004;-74
2022/02/24 02:46:13;;;;;;;;;;;21.40;27.20;;;;;;470224;253;2194;-74
2022/02/24 02:48:14;;;;;;;;;;;21.40;27.20;;;;;;470196;253;1142;-74
2022/02/24 02:50:15;;;;;;;;;;;21.30;27.30;;;;;;470185;253;949;-74
2022/02/24 02:52:17;;;;;;;;;;;21.20;27.30;;;;;;470127;254;1269;-74
2022/02/24 02:54:18;;;;;;;;;;;21.30;27.30;;;;;;470202;253;980;-74
2022/02/24 02:56:19;;;;;;;;;;;21.30;27.20;;;;;;470192;254;1198;-74
2022/02/24 02:58:21;;;;;;;;;;;21.30;27.30;;;;;;470095;253;1143;-74
2022/02/24 03:00:22;;;;;;;;;;;21.40;27.30;;;;;;470140;253;1111;-74
2022/02/24 03:02:23;;;;;;;;;;;21.40;27.20;;;;;;470131;253;1213;-74
2022/02/24 03:04:25;;;;;;;;;;;21.40;27.20;;;;;;470200;254;1093;-74
2022/02/24 03:06:26;;;;;;;;;;;21.40;27.10;;;;;;470198;253;2132;-74
2022/02/24 03:08:27;;;;;;;;;;;21.40;27.10;;;;;;470106;253;1131;-74
2022/02/24 03:10:29;;;;;;;;;;;21.40;27.10;;;;;;470136;254;1135;-74
2022/02/24 03:12:35;;;;;;;;;;;21.40;27.10;;;;;;470175;254;1182;-74
2022/02/24 03:14:31;;;;;;;;;;;21.40;27.10;;;;;;469910;253;1467;-74
2022/02/24 03:16:33;;;;;;;;;;;21.50;27.10;;;;;;470178;253;1130;-74
2022/02/24 03:18:34;;;;;;;;;;;21.40;27.10;;;;;;470200;253;1088;-74
2022/02/24 03:20:35;;;;;;;;;;;21.40;27.10;;;;;;470154;254;1328;-74
2022/02/24 03:22:36;;;;;;;;;;;21.40;27.10;;;;;;470178;254;1015;-74
2022/02/24 03:24:38;;;;;;;;;;;21.30;27.20;;;;;;470122;254;1000;-74
2022/02/24 03:26:39;;;;;;;;;;;21.40;27.20;;;;;;470105;254;2203;-74
2022/02/24 03:28:41;;;;;;;;;;;21.30;27.20;;;;;;470217;253;984;-74
2022/02/24 03:30:42;;;;;;;;;;;21.20;27.30;;;;;;470216;254;1162;-74
2022/02/24 03:32:43;;;;;;;;;;;21.20;27.30;;;;;;470127;253;1213;-74
2022/02/24 03:34:44;;;;;;;;;;;21.30;27.40;;;;;;470195;254;966;-74
2022/02/24 03:36:46;;;;;;;;;;;21.30;27.20;;;;;;470194;253;1189;-74
2022/02/24 03:38:47;;;;;;;;;;;21.30;27.20;;;;;;470178;254;981;-74
2022/02/24 03:40:48;;;;;;;;;;;21.40;27.20;;;;;;470171;253;1233;-74
2022/02/24 03:42:50;;;;;;;;;;;21.30;27.20;;;;;;470147;254;1137;-74
2022/02/24 03:44:51;;;;;;;;;;;21.40;27.20;;;;;;470257;253;968;-74
2022/02/24 03:46:52;;;;;;;;;;;21.40;27.20;;;;;;470127;253;2143;-74
2022/02/24 03:48:54;;;;;;;;;;;21.40;27.20;;;;;;470176;254;970;-74
2022/02/24 03:50:55;;;;;;;;;;;21.40;27.20;;;;;;470188;253;1238;-74
2022/02/24 03:52:56;;;;;;;;;;;21.50;27.20;;;;;;470222;254;1220;-74
2022/02/24 03:54:58;;;;;;;;;;;21.60;27.10;;;;;;470213;254;961;-74
2022/02/24 03:56:59;;;;;;;;;;;21.60;27.00;;;;;;470145;254;1178;-74
2022/02/24 03:59:00;;;;;;;;;;;21.70;26.90;;;;;;470194;253;1089;-74
2022/02/24 04:01:02;;;;;;;;;;;22.00;26.70;;;;;;470186;254;1178;-74
2022/02/24 04:03:03;;;;;;;;;;;22.10;26.70;;;;;;470227;254;1063;-74
2022/02/24 04:05:04;;;;;;;;;;;22.00;26.60;;;;;;470259;254;973;-74
2022/02/24 04:07:05;;;;;;;;;;;22.10;26.60;;;;;;470195;253;2198;-74
2022/02/24 04:09:07;;;;;;;;;;;22.10;26.60;;;;;;470232;253;983;-74
2022/02/24 04:11:08;;;;;;;;;;;22.10;26.60;;;;;;470130;254;1128;-74
2022/02/24 04:13:10;;;;;;;;;;;22.00;26.60;;;;;;470245;253;984;-74
2022/02/24 04:15:11;;;;;;;;;;;21.90;26.70;;;;;;470212;254;953;-74
2022/02/24 04:17:12;;;;;;;;;;;21.80;26.70;;;;;;470123;248;1287;-74
2022/02/24 04:19:13;;;;;;;;;;;21.80;26.80;;;;;;470159;254;1369;-74
2022/02/24 04:21:15;;;;;;;;;;;21.70;26.80;;;;;;470110;254;1184;-74
2022/02/24 04:23:16;;;;;;;;;;;21.60;27.00;;;;;;470240;253;1124;-74
2022/02/24 04:25:17;;;;;;;;;;;21.60;26.90;;;;;;470232;254;1070;-74
2022/02/24 04:27:19;;;;;;;;;;;21.60;27.00;;;;;;470152;253;2215;-74
2022/02/24 04:29:20;;;;;;;;;;;21.50;26.90;;;;;;470204;253;971;-74
2022/02/24 04:31:21;;;;;;;;;;;21.60;27.00;;;;;;470170;253;1289;-74
2022/02/24 04:33:23;;;;;;;;;;;21.50;27.00;;;;;;470151;254;1165;-74
2022/02/24 04:35:24;;;;;;;;;;;21.50;27.00;;;;;;470190;254;1146;-74
2022/02/24 04:37:26;;;;;;;;;;;21.60;27.00;;;;;;470257;253;1184;-74
2022/02/24 04:39:27;;;;;;;;;;;21.50;27.00;;;;;;470199;254;944;-74
2022/02/24 04:41:28;;;;;;;;;;;21.50;27.00;;;;;;470150;253;1261;-74
2022/02/24 04:43:30;;;;;;;;;;;21.40;27.10;;;;;;470140;253;1063;-74
2022/02/24 04:45:31;;;;;;;;;;;21.40;27.10;;;;;;470181;254;952;-74
2022/02/24 04:47:32;;;;;;;;;;;21.40;27.10;;;;;;470065;254;2136;-74
2022/02/24 04:49:34;;;;;;;;;;;21.40;27.10;;;;;;470201;253;971;-74
2022/02/24 04:51:35;;;;;;;;;;;21.40;27.10;;;;;;470177;253;1149;-74
2022/02/24 04:53:36;;;;;;;;;;;21.40;27.00;;;;;;470035;253;1007;-74
2022/02/24 04:55:38;;;;;;;;;;;21.40;27.00;;;;;;470147;253;1215;-74
2022/02/24 04:57:39;;;;;;;;;;;21.40;27.00;;;;;;470128;253;1068;-74
2022/02/24 04:59:40;;;;;;;;;;;21.40;27.00;;;;;;470174;253;985;-74
2022/02/24 05:01:42;;;;;;;;;;;21.40;27.00;;;;;;470125;253;1226;-74
2022/02/24 05:03:43;;;;;;;;;;;21.40;27.00;;;;;;470059;254;980;-74
2022/02/24 05:05:45;;;;;;;;;;;21.40;27.10;;;;;;470123;253;1239;-74
2022/02/24 05:07:46;;;;;;;;;;;21.40;27.00;;;;;;470063;253;2148;-74
2022/02/24 05:09:47;;;;;;;;;;;21.30;27.00;;;;;;470116;253;976;-74
2022/02/24 05:11:48;;;;;;;;;;;21.40;27.10;;;;;;470041;253;1337;-74
2022/02/24 05:13:50;;;;;;;;;;;21.40;27.00;;;;;;470154;254;1019;-74
2022/02/24 05:15:51;;;;;;;;;;;21.40;27.00;;;;;;470111;253;1208;-74
2022/02/24 05:17:53;;;;;;;;;;;21.30;27.00;;;;;;470034;253;1067;-74
2022/02/24 05:19:54;;;;;;;;;;;21.40;27.00;;;;;;470089;253;970;-74
2022/02/24 05:21:55;;;;;;;;;;;21.40;27.00;;;;;;469989;253;1373;-74
2022/02/24 05:23:57;;;;;;;;;;;21.40;27.00;;;;;;470031;253;953;-74
2022/02/24 05:25:58;;;;;;;;;;;21.40;27.00;;;;;;469959;253;1396;-74
2022/02/24 05:27:59;;;;;;;;;;;21.40;27.00;;;;;;470027;254;2210;-74
2022/02/24 05:30:01;;;;;;;;;;;21.40;27.00;;;;;;470166;253;942;-74
2022/02/24 05:32:02;;;;;;;;;;;21.20;27.10;;;;;;470066;253;1119;-74
2022/02/24 05:34:03;;;;;;;;;;;21.20;27.10;;;;;;470054;253;1116;-74
2022/02/24 05:36:05;;;;;;;;;;;21.20;27.10;;;;;;469995;248;1449;-74
2022/02/24 05:38:06;;;;;;;;;;;21.30;27.10;;;;;;470110;253;1144;-74
2022/02/24 05:40:07;;;;;;;;;;;21.30;27.10;;;;;;470011;253;1033;-74
2022/02/24 05:42:08;;;;;;;;;;;21.30;27.10;;;;;;469888;253;1249;-74
2022/02/24 05:44:10;;;;;;;;;;;21.30;27.10;;;;;;469984;254;1253;-74
2022/02/24 05:46:11;;;;;;;;;;;21.30;27.10;;;;;;469933;253;1163;-74
2022/02/24 05:48:12;;;;;;;;;;;21.30;27.10;;;;;;469954;254;2148;-74
2022/02/24 05:50:14;;;;;;;;;;;21.40;27.10;;;;;;470067;254;1006;-74
2022/02/24 05:52:15;;;;;;;;;;;21.40;27.00;;;;;;469866;253;1167;-74
2022/02/24 05:54:16;;;;;;;;;;;21.20;27.10;;;;;;469869;253;1018;-74
2022/02/24 05:56:18;;;;;;;;;;;21.30;27.10;;;;;;469677;254;1208;-74
2022/02/24 05:58:20;;;;;;;;;;;21.40;27.10;;;;;;470025;253;1236;-74
2022/02/24 06:00:21;;;;;;;;;;;21.50;27.00;;;;;;469929;253;988;-74
2022/02/24 06:02:22;;;;;;;;;;;21.60;26.90;;;;;;469835;253;1074;-74
2022/02/24 06:04:24;;;;;;;;;;;21.70;26.80;;;;;;469969;253;939;-74
2022/02/24 06:06:25;;;;;;;;;;;21.90;26.60;;;;;;469972;248;1356;-74
2022/02/24 06:08:26;;;;;;;;;;;21.90;26.60;;;;;;469832;253;2215;-74
2022/02/24 06:10:28;;;;;;;;;;;22.10;26.60;;;;;;469819;253;1035;-74
2022/02/24 06:12:29;;;;;;;;;;;22.10;26.40;;;;;;469807;254;1231;-74
2022/02/24 06:14:30;;;;;;;;;;;22.20;26.40;;;;;;469925;253;995;-74
2022/02/24 06:16:33;;;;;;;;;;;22.20;26.30;;;;;;469869;253;1231;-74
2022/02/24 06:18:33;;;;;;;;;;;22.10;26.40;;;;;;469740;253;1353;-74
2022/02/24 06:20:35;;;;;;;;;;;22.10;26.40;;;;;;469765;254;1146;-74
2022/02/24 06:22:36;;;;;;;;;;;22.00;26.50;;;;;;469756;254;1109;-74
2022/02/24 06:24:37;;;;;;;;;;;21.90;26.50;;;;;;469687;254;1073;-74
2022/02/24 06:26:39;;;;;;;;;;;21.80;26.60;;;;;;469670;254;1307;-74
2022/02/24 06:28:40;;;;;;;;;;;21.90;26.70;;;;;;469929;253;2198;-74
2022/02/24 06:30:41;;;;;;;;;;;21.90;26.70;;;;;;469848;253;1362;-74
2022/02/24 06:32:43;;;;;;;;;;;21.80;26.70;;;;;;469821;253;1204;-74
2022/02/24 06:34:44;;;;;;;;;;;21.70;26.70;;;;;;469751;253;1006;-74
2022/02/24 06:36:45;;;;;;;;;;;21.70;26.80;;;;;;469753;254;1472;-74
2022/02/24 06:38:47;;;;;;;;;;;21.60;26.80;;;;;;469886;253;1042;-74
2022/02/24 06:40:48;;;;;;;;;;;21.60;26.80;;;;;;469690;254;967;-74
2022/02/24 06:42:49;;;;;;;;;;;21.60;26.90;;;;;;469696;253;1102;-74
2022/02/24 06:44:51;;;;;;;;;;;21.60;26.90;;;;;;469675;253;1117;-74
2022/02/24 06:46:52;;;;;;;;;;;21.60;26.90;;;;;;469600;254;1225;-74
2022/02/24 06:48:53;;;;;;;;;;;21.50;27.00;;;;;;469595;253;2117;-74
2022/02/24 06:50:54;;;;;;;;;;;21.60;26.90;;;;;;469558;253;1003;-74
2022/02/24 06:52:56;;;;;;;;;;;21.50;26.90;;;;;;469607;254;1244;-74
2022/02/24 06:54:57;;;;;;;;;;;21.60;26.90;;;;;;469609;253;1045;-74
2022/02/24 06:57:00;;;;;;;;;;;21.50;27.10;;;;;;469546;253;1214;-74
2022/02/24 06:59:00;;;;;;;;;;;21.40;27.10;;;;;;469490;254;1594;-74
2022/02/24 07:01:02;;;;;;;;;;;21.40;27.20;;;;;;469707;253;1026;-74
2022/02/24 07:03:03;;;;;;;;;;;21.40;27.20;;;;;;469508;254;1027;-74
2022/02/24 07:05:04;;;;;;;;;;;21.40;27.20;;;;;;469503;253;1091;-74
2022/02/24 07:07:06;;;;;;;;;;;21.40;27.30;;;;;;469599;253;975;-74
2022/02/24 07:09:07;;;;;;;;;;;21.40;27.30;;;;;;469584;253;2187;-74
2022/02/24 07:11:08;;;;;;;;;;;21.30;27.40;;;;;;469472;253;1073;-75
2022/02/24 07:13:10;;;;;;;;;;;21.30;27.50;;;;;;469613;253;1386;-74
2022/02/24 07:15:11;;;;;;;;;;;21.30;27.50;;;;;;469503;253;996;-74
2022/02/24 07:17:12;;;;;;;;;;;21.30;27.50;;;;;;469453;253;1137;-74
2022/02/24 07:19:14;;;;;;;;;;;21.40;27.50;;;;;;469546;253;1064;-74
2022/02/24 07:21:15;;;;;;;;;;;21.40;27.50;;;;;;469522;253;1325;-74
2022/02/24 07:23:16;;;;;;;;;;;21.50;27.50;;;;;;469458;253;1193;-74
2022/02/24 07:25:18;;;;;;;;;;;21.40;27.50;;;;;;469457;254;1035;-74
2022/02/24 07:27:19;;;;;;;;;;;21.50;27.50;;;;;;469430;254;1331;-74
2022/02/24 07:29:20;;;;;;;;;;;21.40;27.60;;;;;;469482;254;2190;-74
2022/02/24 07:31:22;;;;;;;;;;;21.60;27.60;;;;;;469481;253;1207;-74
2022/02/24 07:33:23;;;;;;;;;;;21.60;27.60;;;;;;469665;253;1290;-74
2022/02/24 07:35:24;;;;;;;;;;;21.60;27.60;;;;;;469539;253;1081;-74
2022/02/24 07:37:26;;;;;;;;;;;21.40;27.70;;;;;;469512;253;1237;-74
2022/02/24 07:39:27;;;;;;;;;;;21.50;27.70;;;;;;469454;254;986;-74
2022/02/24 07:41:28;;;;;;;;;;;21.50;27.70;;;;;;469480;253;1103;-74
2022/02/24 07:43:31;;;;;;;;;;;21.50;27.80;;;;;;469429;253;1248;-74
2022/02/24 07:45:31;;;;;;;;;;;21.40;27.80;;;;;;469204;253;1413;-74
2022/02/24 07:47:32;;;;;;;;;;;21.50;27.80;;;;;;469283;254;1141;-74
2022/02/24 07:49:34;;;;;;;;;;;21.50;27.90;;;;;;469452;253;2111;-74
2022/02/24 07:51:35;;;;;;;;;;;21.40;28.10;;;;;;469461;253;1117;-73
2022/02/24 07:53:37;;;;;;;;;;;21.30;28.20;;;;;;469436;253;1257;-76
2022/02/24 07:55:38;;;;;;;;;;;21.30;28.30;;;;;;469336;254;1230;-75
2022/02/24 07:57:39;;;;;;;;;;;21.10;28.50;;;;;;469283;253;1143;-74
2022/02/24 07:59:41;;;;;;;;;;;21.00;28.70;;;;;;469493;254;1016;-74
2022/02/24 08:01:42;;;;;;;;;;;20.90;28.80;;;;;;469427;253;1184;-75
2022/02/24 08:03:43;;;;;;;;;;;20.70;28.90;;;;;;469515;253;1061;-73
2022/02/24 08:05:45;;;;;;;;;;;20.20;29.50;;;;;;469404;253;1017;-74
2022/02/24 08:07:46;;;;;;;;;;;19.90;29.80;;;;;;469207;254;1194;-74
2022/02/24 08:09:47;;;;;;;;;;;19.70;30.00;;;;;;469219;253;2198;-73
2022/02/24 08:14:09;;;;;;;;;;;19.60;30.30;;;;;;469395;253;1161;-74
2022/02/24 08:16:10;;;;;;;;;;;20.00;30.10;;;;;;469393;253;1148;-73
2022/02/24 08:18:12;;;;;;;;;;;20.00;30.00;;;;;;469261;253;1231;-74
2022/02/24 08:20:13;;;;;;;;;;;20.10;30.00;;;;;;469301;254;1069;-74
2022/02/24 08:22:16;;;;;;;;;;;20.20;30.00;;;;;;469267;254;1179;-75
2022/02/24 08:24:16;;;;;;;;;;;20.30;29.90;;;;;;469282;253;1408;-74
2022/02/24 08:26:17;;;;;;;;;;;20.50;29.80;;;;;;469342;253;1357;-75
2022/02/24 08:28:19;;;;;;;;;;;20.30;29.90;;;;;;469344;253;2219;-73
2022/02/24 08:30:21;;;;;;;;;;;20.10;30.00;;;;;;469178;253;1001;-73
2022/02/24 08:32:21;;;;;;;;;;;19.90;30.40;;;;;;469413;253;1354;-73
2022/02/24 08:34:23;;;;;;;;;;;19.90;30.50;;;;;;469421;254;1039;-73
2022/02/24 08:36:24;;;;;;;;;;;20.00;30.40;;;;;;469514;253;1435;-73
2022/02/24 08:38:25;;;;;;;;;;;20.00;30.50;;;;;;469500;253;1047;-74
2022/02/24 08:40:27;;;;;;;;;;;20.00;30.60;;;;;;469292;253;1102;-77
2022/02/24 08:42:28;;;;;;;;;;;20.30;30.40;;;;;;469502;254;1319;-76
2022/02/24 08:44:29;;;;;;;;;;;20.60;30.00;;;;;;469387;254;1205;-77
2022/02/24 08:46:31;;;;;;;;;;;20.80;29.80;;;;;;469267;254;1365;-76
2022/02/24 08:48:33;;;;;;;;;;;20.90;29.70;;;;;;469120;253;2203;-76
2022/02/24 08:50:33;;;;;;;;;;;21.00;29.60;;;;;;469111;254;1444;-76
2022/02/24 08:52:35;;;;;;;;;;;21.10;29.70;;;;;;469313;254;1109;-75
2022/02/24 08:54:36;;;;;;;;;;;21.00;29.70;;;;;;469411;253;1004;-74
2022/02/24 08:56:37;;;;;;;;;;;20.90;29.90;;;;;;469337;254;1173;-74
2022/02/24 08:58:39;;;;;;;;;;;20.80;30.00;;;;;;469337;253;1137;-73
2022/02/24 09:00:45;;;;;;;;;;;20.80;30.10;;;;;;469263;253;1147;-74
2022/02/24 09:02:42;;;;;;;;;;;20.70;30.20;;;;;;468923;253;1529;-74
2022/02/24 09:04:43;;;;;;;;;;;20.70;30.30;;;;;;469274;253;968;-75
2022/02/24 09:06:44;;;;;;;;;;;20.60;30.60;;;;;;469302;253;1268;-74
2022/02/24 09:08:46;;;;;;;;;;;20.50;30.70;;;;;;469128;253;2195;-74
2022/02/24 09:10:47;;;;;;;;;;;20.50;30.80;;;;;;469121;253;1012;-74
2022/02/24 09:12:48;;;;;;;;;;;20.70;30.70;;;;;;469380;253;1139;-74
2022/02/24 09:14:50;;;;;;;;;;;20.70;30.70;;;;;;469353;254;1208;-74
2022/02/24 09:16:51;;;;;;;;;;;20.60;30.70;;;;;;468706;254;1207;-74
2022/02/24 09:18:52;;;;;;;;;;;20.60;30.80;;;;;;469276;253;1009;-74
2022/02/24 09:20:54;;;;;;;;;;;20.50;30.90;;;;;;469336;254;1173;-74
2022/02/24 09:22:55;;;;;;;;;;;20.40;31.00;;;;;;469325;253;1121;-74
2022/02/24 09:24:56;;;;;;;;;;;20.50;31.10;;;;;;469376;253;1060;-74
2022/02/24 09:26:58;;;;;;;;;;;20.50;31.10;;;;;;469368;253;1240;-75
2022/02/24 09:28:59;;;;;;;;;;;20.50;31.20;;;;;;469208;253;2196;-74
2022/02/24 09:31:00;;;;;;;;;;;20.50;31.20;;;;;;469208;253;1273;-73
2022/02/24 09:33:02;;;;;;;;;;;20.60;31.20;;;;;;469254;254;1201;-74
2022/02/24 09:35:03;;;;;;;;;;;20.70;31.20;;;;;;469396;253;1029;-74
2022/02/24 09:37:04;;;;;;;;;;;20.70;31.10;;;;;;469417;254;1114;-74
2022/02/24 09:39:05;;;;;;;;;;;20.80;31.00;;;;;;469085;253;1116;-74
2022/02/24 09:41:08;;;;;;;;;;;20.80;31.00;;;;;;469122;254;1064;-74
2022/02/24 09:43:08;;;;;;;;;;;20.90;30.90;;;;;;469278;253;1409;-74
2022/02/24 09:45:09;;;;;;;;;;;20.90;30.80;;;;;;469317;253;1179;-74
2022/02/24 09:47:11;;;;;;;;;;;20.90;30.90;;;;;;469211;254;1289;-74
2022/02/24 09:49:12;;;;;;;;;;;20.90;30.80;;;;;;469160;253;2120;-74
2022/02/24 09:51:14;;;;;;;;;;;20.90;30.80;;;;;;469261;253;1128;-74
2022/02/24 09:53:15;;;;;;;;;;;20.90;30.80;;;;;;469216;254;1148;-74
2022/02/24 09:55:17;;;;;;;;;;;21.00;30.80;;;;;;469051;253;1063;-73
2022/02/24 09:57:18;;;;;;;;;;;20.90;31.00;;;;;;469065;254;1211;-74
2022/02/24 09:59:19;;;;;;;;;;;20.90;31.00;;;;;;469319;253;1193;-74
2022/02/24 10:01:21;;;;;;;;;;;20.90;31.00;;;;;;469194;253;1184;-74
2022/02/24 10:03:22;;;;;;;;;;;20.90;31.00;;;;;;469372;254;1047;-74
2022/02/24 10:05:23;;;;;;;;;;;20.80;31.00;;;;;;469340;254;1272;-74
2022/02/24 10:07:25;;;;;;;;;;;20.80;31.10;;;;;;469340;253;1179;-74
2022/02/24 10:09:26;;;;;;;;;;;20.90;31.10;;;;;;469205;254;2203;-74
2022/02/24 10:11:28;;;;;;;;;;;20.80;31.10;;;;;;469270;253;1208;-74
2022/02/24 10:13:29;;;;;;;;;;;20.70;31.20;;;;;;469444;253;1123;-74
2022/02/24 10:15:30;;;;;;;;;;;20.60;31.30;;;;;;469364;254;1479;-74
2022/02/24 10:17:31;;;;;;;;;;;20.50;31.50;;;;;;469362;253;1143;-74
2022/02/24 10:19:33;;;;;;;;;;;20.50;31.50;;;;;;469213;253;1038;-74
2022/02/24 10:21:34;;;;;;;;;;;20.50;31.50;;;;;;469269;253;1373;-74
2022/02/24 10:23:35;;;;;;;;;;;20.50;31.40;;;;;;469315;253;1035;-74
2022/02/24 10:25:37;;;;;;;;;;;20.50;31.50;;;;;;469176;254;1261;-73
2022/02/24 10:27:39;;;;;;;;;;;20.40;31.50;;;;;;469191;253;1048;-73
2022/02/24 10:29:40;;;;;;;;;;;20.50;31.50;;;;;;469306;253;2190;-74
2022/02/24 10:31:43;;;;;;;;;;;20.50;31.60;;;;;;469204;254;1096;-74
2022/02/24 10:33:44;;;;;;;;;;;20.40;31.70;;;;;;469220;253;1049;-75
2022/02/24 10:35:45;;;;;;;;;;;20.40;31.80;;;;;;469392;254;1057;-75
2022/02/24 10:37:46;;;;;;;;;;;20.40;31.90;;;;;;469269;253;1174;-74
2022/02/24 10:39:48;;;;;;;;;;;20.50;31.60;;;;;;469124;253;1339;-74
2022/02/24 10:41:50;;;;;;;;;;;20.70;31.50;;;;;;469024;254;1111;-74
2022/02/24 10:43:51;;;;;;;;;;;20.70;31.50;;;;;;469203;253;1229;-74
2022/02/24 10:45:52;;;;;;;;;;;20.80;31.30;;;;;;469190;253;1152;-74
2022/02/24 10:47:53;;;;;;;;;;;20.90;31.20;;;;;;469239;253;1189;-74
2022/02/24 10:49:55;;;;;;;;;;;20.90;31.20;;;;;;469252;253;2206;-74
2022/02/24 10:51:56;;;;;;;;;;;20.90;31.20;;;;;;469240;254;1090;-74
2022/02/24 10:53:57;;;;;;;;;;;20.90;31.30;;;;;;469360;253;1081;-75
2022/02/24 10:55:59;;;;;;;;;;;20.90;31.20;;;;;;469152;254;1139;-74
2022/02/24 10:58:01;;;;;;;;;;;21.00;31.10;;;;;;469277;253;1109;-74
2022/02/24 11:00:02;;;;;;;;;;;21.00;31.10;;;;;;469391;254;1120;-74
2022/02/24 11:02:04;;;;;;;;;;;21.00;31.00;;;;;;469516;254;1036;-74
2022/02/24 11:04:05;;;;;;;;;;;21.00;31.00;;;;;;469350;254;1095;-75
2022/02/24 11:06:06;;;;;;;;;;;21.00;31.00;;;;;;469330;254;1044;-75
2022/02/24 11:08:07;;;;;;;;;;;21.00;31.00;;;;;;469329;253;1116;-74
2022/02/24 11:10:09;;;;;;;;;;;21.00;31.00;;;;;;469371;254;2188;-75
2022/02/24 11:12:11;;;;;;;;;;;21.10;31.00;;;;;;469457;253;1201;-76
2022/02/24 11:14:12;;;;;;;;;;;21.10;30.80;;;;;;469406;253;1387;-75
2022/02/24 11:16:13;;;;;;;;;;;21.00;30.80;;;;;;469421;253;1229;-75
2022/02/24 11:18:15;;;;;;;;;;;20.90;30.90;;;;;;469375;253;1047;-74
2022/02/24 11:20:16;;;;;;;;;;;20.90;30.90;;;;;;469225;254;994;-74
2022/02/24 11:22:17;;;;;;;;;;;20.90;30.90;;;;;;469225;254;1087;-74
2022/02/24 11:24:18;;;;;;;;;;;20.90;30.90;;;;;;469254;253;1063;-75
2022/02/24 11:26:20;;;;;;;;;;;21.00;30.70;;;;;;469333;249;1135;-75
2022/02/24 11:28:21;;;;;;;;;;;20.90;30.70;;;;;;469401;254;988;-74
2022/02/24 11:30:25;;;;;;;;;;;21.10;30.70;;;;;;469582;253;2132;-75
2022/02/24 11:32:25;;;;;;;;;;;21.10;30.60;;;;;;469484;253;1402;-75
2022/02/24 11:34:26;;;;;;;;;;;21.10;30.60;;;;;;469503;254;1564;-75
2022/02/24 11:36:27;;;;;;;;;;;21.10;30.50;;;;;;469361;253;1106;-74
2022/02/24 11:38:29;;;;;;;;;;;21.10;30.60;;;;;;469160;253;1065;-74
2022/02/24 11:40:36;;;;;;;;;;;21.00;30.70;;;;;;468959;253;1349;-74
2022/02/24 11:42:31;;;;;;;;;;;20.90;30.70;;;;;;468677;253;1319;-74
2022/02/24 11:44:33;;;;;;;;;;;20.90;30.80;;;;;;469557;254;1011;-74
2022/02/24 11:46:34;;;;;;;;;;;20.90;30.80;;;;;;469200;253;1197;-74
2022/02/24 11:48:36;;;;;;;;;;;20.90;30.90;;;;;;469412;253;1162;-74
2022/02/24 11:50:37;;;;;;;;;;;20.90;30.90;;;;;;469332;254;2190;-74
2022/02/24 11:52:38;;;;;;;;;;;20.90;31.00;;;;;;469260;253;1181;-74
2022/02/24 11:54:39;;;;;;;;;;;20.80;30.90;;;;;;469383;254;1028;-74
2022/02/24 11:56:41;;;;;;;;;;;20.90;31.10;;;;;;469364;254;1222;-74
2022/02/24 11:58:42;;;;;;;;;;;20.90;31.00;;;;;;469370;253;1160;-74